Terminal Aerodrome Forecast
Issued by NWS

Home | Current Version | Previous Version | Text Only | Print | Product List | Glossary On
Versions: 1 2 3 4 5 6 7 8 9 10 11 12 13 14 15 16 17 18 19 20 21
241
FTUS42 KFFC 260148 AAB
TAFFTY
TAF AMD
KFTY 260148Z 2602/2624 29007KT P6SM VCSH SCT050 BKN090
     FM260400 VRB03KT P6SM SCT100
     FM261000 00000KT 5SM BR SCT250
     FM261300 22006KT P6SM SCT040 PROB30 2619/2623 4SM -TSRA BR
      BKN035CB=

USA.gov is the U.S. government's official web portal to all federal, state and local government web resources and services.